createdAt,value
2023-03-29T00:01:06.633Z,101450.53
2023-03-29T00:03:35.287Z,101444.00
2023-03-29T00:06:04.337Z,101452.84
2023-03-29T00:08:33.980Z,101356.63
2023-03-29T00:11:01.632Z,101440.41
2023-03-29T00:13:29.375Z,101449.72
2023-03-29T00:15:56.709Z,101344.88
2023-03-29T00:18:23.844Z,101406.56
2023-03-29T00:20:56.137Z,101462.16
2023-03-29T00:23:23.299Z,101463.94
2023-03-29T00:25:50.990Z,101477.06
2023-03-29T00:28:18.126Z,101382.22
2023-03-29T00:30:45.560Z,101465.97
2023-03-29T00:33:13.628Z,101369.81
2023-03-29T00:35:42.691Z,101469.94
2023-03-29T00:38:11.300Z,101357.78
2023-03-29T00:40:42.020Z,101382.44
2023-03-29T00:43:11.159Z,101487.13
2023-03-29T00:45:39.056Z,101443.53
2023-03-29T00:48:08.864Z,101485.34
2023-03-29T00:50:40.268Z,101402.69
2023-03-29T00:53:13.239Z,101474.47
2023-03-29T00:55:45.620Z,101471.25
2023-03-29T00:58:18.091Z,101368.38
2023-03-29T01:00:52.196Z,101475.06
2023-03-29T01:03:27.430Z,101473.47
2023-03-29T01:06:00.375Z,101482.13
2023-03-29T01:08:35.856Z,101422.53
2023-03-29T01:11:07.288Z,101466.06
2023-03-29T01:13:39.447Z,101482.16
2023-03-29T01:16:09.712Z,101472.59
2023-03-29T01:18:37.217Z,101471.59
2023-03-29T01:21:25.228Z,101417.78
2023-03-29T01:24:26.056Z,101440.03
2023-03-29T01:27:01.076Z,101472.63
2023-03-29T01:29:47.224Z,101387.97
2023-03-29T01:32:19.739Z,101428.81
2023-03-29T01:34:52.205Z,101466.44
2023-03-29T01:37:24.861Z,101448.56
2023-03-29T01:39:52.733Z,101443.28
2023-03-29T01:42:32.370Z,101368.09
2023-03-29T01:45:10.291Z,101459.19
2023-03-29T01:47:47.002Z,101463.53
2023-03-29T01:50:18.874Z,101460.91
2023-03-29T01:52:52.056Z,101465.03
2023-03-29T01:55:24.400Z,101413.69
2023-03-29T01:57:55.660Z,101465.72
2023-03-29T02:00:27.706Z,101463.00
2023-03-29T02:03:00.251Z,101462.94
2023-03-29T02:05:30.621Z,101456.19
2023-03-29T02:08:00.426Z,101433.13
2023-03-29T02:10:29.916Z,101426.94
2023-03-29T02:12:58.735Z,101389.75
2023-03-29T02:15:28.154Z,101459.69
2023-03-29T02:17:56.937Z,101439.16
2023-03-29T02:20:28.628Z,101456.38
2023-03-29T02:23:02.321Z,101460.78
2023-03-29T02:25:29.646Z,101468.56
2023-03-29T02:27:57.385Z,101363.59
2023-03-29T02:30:28.126Z,101372.19
2023-03-29T02:33:02.016Z,101466.00
2023-03-29T02:35:35.080Z,101391.00
2023-03-29T02:38:07.835Z,101413.72
2023-03-29T02:40:37.656Z,101460.53
2023-03-29T02:43:07.755Z,101464.94
2023-03-29T02:45:37.604Z,101458.09
2023-03-29T02:48:10.936Z,101353.50
2023-03-29T02:50:39.353Z,101375.53
2023-03-29T02:53:13.198Z,101456.59
2023-03-29T02:55:40.473Z,101445.56
2023-03-29T02:58:10.764Z,101376.63
2023-03-29T03:00:42.112Z,101465.63
2023-03-29T03:03:12.076Z,101372.94
2023-03-29T03:05:39.546Z,101466.81
2023-03-29T03:08:07.690Z,101376.41
2023-03-29T03:10:35.483Z,101476.94
2023-03-29T03:13:03.689Z,101476.91
2023-03-29T03:15:31.252Z,101381.34
2023-03-29T03:17:58.577Z,101482.97
2023-03-29T03:20:27.275Z,101479.56
2023-03-29T03:22:54.816Z,101412.56
2023-03-29T03:25:21.849Z,101402.31
2023-03-29T03:27:50.281Z,101407.75
2023-03-29T03:30:17.966Z,101494.03
2023-03-29T03:32:45.264Z,101505.03
2023-03-29T03:35:12.992Z,101481.22
2023-03-29T03:38:07.384Z,101478.72
2023-03-29T03:40:34.507Z,101418.00
2023-03-29T03:43:02.017Z,101511.66
2023-03-29T03:45:29.120Z,101421.34
2023-03-29T03:47:56.679Z,101415.38
2023-03-29T03:50:24.488Z,101530.97
2023-03-29T03:52:52.080Z,101438.88
2023-03-29T03:55:22.041Z,101437.13
2023-03-29T03:57:49.262Z,101446.34
2023-03-29T04:00:19.628Z,101538.44
2023-03-29T04:02:49.017Z,101543.75
2023-03-29T04:05:17.215Z,101549.22
2023-03-29T04:07:44.652Z,101431.38
2023-03-29T04:10:11.863Z,101460.56
2023-03-29T04:12:40.741Z,101459.84
2023-03-29T04:15:08.988Z,101485.69
2023-03-29T04:17:36.328Z,101506.28
2023-03-29T04:20:10.275Z,101516.75
2023-03-29T04:22:37.653Z,101488.53
2023-03-29T04:25:05.652Z,101493.00
2023-03-29T04:27:33.150Z,101495.50
2023-03-29T04:30:01.562Z,101501.56
2023-03-29T04:32:28.874Z,101557.19
2023-03-29T04:34:56.487Z,101441.00
2023-03-29T04:37:24.127Z,101506.84
2023-03-29T04:39:52.531Z,101601.84
2023-03-29T04:42:20.369Z,101505.19
2023-03-29T04:44:47.518Z,101606.00
2023-03-29T04:47:16.314Z,101589.84
2023-03-29T04:49:43.326Z,101522.44
2023-03-29T04:52:10.810Z,101603.50
2023-03-29T04:54:37.947Z,101527.97
2023-03-29T04:57:06.017Z,101540.81
2023-03-29T04:59:33.356Z,101569.09
2023-03-29T05:02:03.164Z,101541.31
2023-03-29T05:04:32.553Z,101534.69
2023-03-29T05:07:01.679Z,101534.56
2023-03-29T05:09:29.551Z,101617.44
2023-03-29T05:11:57.197Z,101610.31
2023-03-29T05:14:24.492Z,101629.22
2023-03-29T05:16:52.133Z,101618.81
2023-03-29T05:19:21.854Z,101618.34
2023-03-29T05:21:51.220Z,101535.78
2023-03-29T05:24:18.738Z,101545.25
2023-03-29T05:26:47.721Z,101570.53
2023-03-29T05:29:14.829Z,101573.25
2023-03-29T05:31:42.350Z,101597.31
2023-03-29T05:34:09.624Z,101539.88
2023-03-29T05:36:38.216Z,101581.31
2023-03-29T05:39:07.163Z,101613.84
2023-03-29T05:41:34.585Z,101620.97
2023-03-29T05:44:02.554Z,101631.22
2023-03-29T05:46:30.062Z,101633.38
2023-03-29T05:48:57.369Z,101625.16
2023-03-29T05:51:24.810Z,101552.66
2023-03-29T05:53:52.128Z,101553.97
2023-03-29T05:56:20.886Z,101640.66
2023-03-29T05:58:49.247Z,101648.97
2023-03-29T06:01:19.651Z,101639.03
2023-03-29T06:03:47.457Z,101654.41
2023-03-29T06:06:16.638Z,101632.78
2023-03-29T06:08:45.024Z,101657.66
2023-03-29T06:11:13.475Z,101675.91
2023-03-29T06:13:42.262Z,101636.25
2023-03-29T06:16:10.491Z,101675.56
2023-03-29T06:18:40.307Z,101600.66
2023-03-29T06:21:09.456Z,101650.00
2023-03-29T06:23:36.768Z,101670.19
2023-03-29T06:26:05.668Z,101648.28
2023-03-29T06:28:33.056Z,101675.91
2023-03-29T06:31:03.271Z,101601.94
2023-03-29T06:33:32.446Z,101689.81
2023-03-29T06:35:59.956Z,101692.38
2023-03-29T06:38:28.457Z,101693.56
2023-03-29T06:41:01.534Z,101616.78
2023-03-29T06:43:28.859Z,101610.81
2023-03-29T06:45:56.386Z,101603.84
2023-03-29T06:48:25.019Z,101699.84
2023-03-29T06:50:54.525Z,101631.88
2023-03-29T06:53:22.165Z,101609.56
2023-03-29T06:55:51.840Z,101699.97
2023-03-29T06:58:18.833Z,101682.28
2023-03-29T07:00:47.512Z,101706.19
2023-03-29T07:03:20.405Z,101704.50
2023-03-29T07:05:51.812Z,101618.63
2023-03-29T07:08:21.294Z,101622.13
2023-03-29T07:10:53.284Z,101620.53
2023-03-29T07:13:20.432Z,101697.88
2023-03-29T07:15:47.829Z,101639.59
2023-03-29T07:18:14.916Z,101623.47
2023-03-29T07:20:42.613Z,101597.97
2023-03-29T07:23:11.897Z,101665.50
2023-03-29T07:25:39.410Z,101649.84
2023-03-29T07:28:06.879Z,101645.84
2023-03-29T07:30:34.604Z,101640.13
2023-03-29T07:33:01.609Z,101603.34
2023-03-29T07:35:29.205Z,101660.56
2023-03-29T07:37:56.304Z,101645.13
2023-03-29T07:40:26.444Z,101698.91
2023-03-29T07:42:55.259Z,101640.38
2023-03-29T07:45:26.656Z,101723.94
2023-03-29T07:47:57.302Z,101743.84
2023-03-29T07:50:25.785Z,101746.16
2023-03-29T07:52:53.278Z,101734.63
2023-03-29T07:55:22.340Z,101661.56
2023-03-29T07:57:51.737Z,101662.88
2023-03-29T08:00:20.362Z,101647.91
2023-03-29T08:02:49.838Z,101655.00
2023-03-29T08:05:26.160Z,101658.13
2023-03-29T08:07:56.673Z,101629.97
2023-03-29T08:10:24.423Z,101599.34
2023-03-29T08:12:53.666Z,101745.31
2023-03-29T08:15:20.979Z,101666.66
2023-03-29T08:17:48.110Z,101655.56
2023-03-29T08:20:18.388Z,101649.63
2023-03-29T08:22:45.481Z,101702.38
2023-03-29T08:25:12.940Z,101658.16
2023-03-29T08:27:39.941Z,101737.72
2023-03-29T08:30:10.122Z,101727.31
2023-03-29T08:32:37.594Z,101738.38
2023-03-29T08:35:07.386Z,101655.94
2023-03-29T08:37:34.466Z,101656.81
2023-03-29T08:40:02.295Z,101738.28
2023-03-29T08:42:54.397Z,101648.41
2023-03-29T08:45:29.341Z,101738.22
2023-03-29T08:48:08.424Z,101654.75
2023-03-29T08:50:39.699Z,101648.63
2023-03-29T08:53:12.048Z,101671.25
2023-03-29T08:55:42.679Z,101657.53
2023-03-29T08:58:15.900Z,101643.66
2023-03-29T09:00:48.593Z,101758.97
2023-03-29T09:03:22.297Z,101655.44
2023-03-29T09:05:53.610Z,101657.53
2023-03-29T09:08:22.653Z,101746.19
2023-03-29T09:11:07.925Z,101656.91
2023-03-29T09:13:43.990Z,101729.59
2023-03-29T09:16:22.739Z,101668.69
2023-03-29T09:19:02.040Z,101673.28
2023-03-29T09:21:37.733Z,101750.44
2023-03-29T09:24:28.932Z,101652.31
2023-03-29T09:27:00.703Z,101649.06
2023-03-29T09:29:52.600Z,101659.88
2023-03-29T09:32:23.435Z,101657.00
2023-03-29T09:34:58.368Z,101676.34
2023-03-29T09:37:32.011Z,101653.00
2023-03-29T09:39:59.978Z,101660.78
2023-03-29T09:42:30.555Z,101591.72
2023-03-29T09:45:03.449Z,101730.94
2023-03-29T09:47:36.166Z,101646.34
2023-03-29T09:50:23.008Z,101729.84
2023-03-29T09:52:58.028Z,101735.31
2023-03-29T09:55:28.276Z,101709.91
2023-03-29T09:58:00.364Z,101725.75
2023-03-29T10:00:27.976Z,101734.28
2023-03-29T10:02:58.975Z,101630.63
2023-03-29T10:05:30.043Z,101640.44
2023-03-29T10:08:02.416Z,101690.22
2023-03-29T10:10:32.389Z,101651.72
2023-03-29T10:13:03.388Z,101636.69
2023-03-29T10:15:30.935Z,101649.63
2023-03-29T10:18:01.155Z,101694.16
2023-03-29T10:20:28.425Z,101703.72
2023-03-29T10:22:57.699Z,101702.84
2023-03-29T10:25:27.585Z,101623.88
2023-03-29T10:27:58.518Z,101661.00
2023-03-29T10:30:26.334Z,101709.03
2023-03-29T10:32:58.020Z,101617.97
2023-03-29T10:35:30.001Z,101697.22
2023-03-29T10:37:59.406Z,101676.59
2023-03-29T10:40:27.863Z,101674.81
2023-03-29T10:42:59.684Z,101665.34
2023-03-29T10:45:29.262Z,101632.44
2023-03-29T10:47:58.020Z,101664.03
2023-03-29T10:50:34.325Z,101660.50
2023-03-29T10:53:03.290Z,101632.28
2023-03-29T10:55:37.096Z,101657.25
2023-03-29T10:58:17.021Z,101649.09
2023-03-29T11:00:50.221Z,101620.34
2023-03-29T11:03:38.433Z,101602.38
2023-03-29T11:06:16.537Z,101593.81
2023-03-29T11:08:52.768Z,101639.41
2023-03-29T11:11:41.252Z,101621.13
2023-03-29T11:14:24.811Z,101622.47
2023-03-29T11:17:05.001Z,101594.44
2023-03-29T11:20:02.381Z,101625.91
2023-03-29T11:22:46.313Z,101625.84
2023-03-29T11:25:24.747Z,101619.72
2023-03-29T11:27:59.082Z,101618.53
2023-03-29T11:30:35.309Z,101568.88
2023-03-29T11:33:12.379Z,101608.63
2023-03-29T11:35:48.359Z,101486.13
2023-03-29T11:38:28.037Z,101535.47
2023-03-29T11:41:01.638Z,101590.44
2023-03-29T11:43:35.009Z,101588.41
2023-03-29T11:46:11.463Z,101513.59
2023-03-29T11:48:43.293Z,101513.69
2023-03-29T11:51:16.267Z,101581.09
2023-03-29T11:53:53.820Z,101580.88
2023-03-29T11:56:27.716Z,101520.94
2023-03-29T11:59:01.455Z,101585.03
2023-03-29T12:01:33.470Z,101492.69
2023-03-29T12:04:06.237Z,101511.13
2023-03-29T12:06:39.330Z,101498.81
2023-03-29T12:09:14.263Z,101569.94
2023-03-29T12:11:54.483Z,101488.66
2023-03-29T12:14:32.641Z,101568.69
2023-03-29T12:17:06.092Z,101573.41
2023-03-29T12:19:42.633Z,101512.41
2023-03-29T12:22:11.201Z,101492.25
2023-03-29T12:24:43.217Z,101487.13
2023-03-29T12:27:26.589Z,101569.78
2023-03-29T12:30:21.652Z,101512.19
2023-03-29T12:33:07.359Z,101567.63
2023-03-29T12:35:45.492Z,101491.50
2023-03-29T12:38:19.618Z,101514.84
2023-03-29T12:40:54.485Z,101547.94
2023-03-29T12:43:26.222Z,101547.56
2023-03-29T12:45:57.164Z,101535.59
2023-03-29T12:48:27.901Z,101495.53
2023-03-29T12:51:03.341Z,101540.00
2023-03-29T12:53:34.391Z,101549.47
2023-03-29T12:56:13.375Z,101554.31
2023-03-29T12:59:05.639Z,101435.09
2023-03-29T13:01:34.357Z,101558.19
2023-03-29T13:04:14.243Z,101541.47
2023-03-29T13:07:07.190Z,101539.31
2023-03-29T13:09:42.793Z,101449.81
2023-03-29T13:12:24.080Z,101458.97
2023-03-29T13:14:55.215Z,101523.63
2023-03-29T13:17:31.912Z,101455.13
2023-03-29T13:20:13.671Z,101456.00
2023-03-29T13:22:50.964Z,101522.66
2023-03-29T13:25:44.063Z,101478.72
2023-03-29T13:28:20.461Z,101517.41
2023-03-29T13:30:57.688Z,101446.91
2023-03-29T13:33:43.761Z,101512.00
2023-03-29T13:36:19.893Z,101434.09
2023-03-29T13:38:49.475Z,101512.03
2023-03-29T13:41:43.739Z,101471.16
2023-03-29T13:44:26.077Z,101417.38
2023-03-29T13:47:03.741Z,101462.09
2023-03-29T13:49:33.927Z,101494.28
2023-03-29T13:52:13.359Z,101489.94
2023-03-29T13:54:45.656Z,101473.16
2023-03-29T13:57:20.207Z,101458.50
2023-03-29T14:00:01.338Z,101467.47
2023-03-29T14:02:35.647Z,101396.09
2023-03-29T14:05:05.707Z,101403.69
2023-03-29T14:07:37.276Z,101448.09
2023-03-29T14:10:05.139Z,101454.13
2023-03-29T14:12:37.755Z,101420.75
2023-03-29T14:15:18.304Z,101416.94
2023-03-29T14:17:46.804Z,101472.72
2023-03-29T14:20:15.716Z,101450.31
2023-03-29T14:22:44.292Z,101454.88
2023-03-29T14:25:17.235Z,101377.38
2023-03-29T14:27:44.901Z,101458.84
2023-03-29T14:30:25.379Z,101452.22
2023-03-29T14:32:53.022Z,101364.91
2023-03-29T14:35:27.315Z,101459.09
2023-03-29T14:37:55.284Z,101385.50
2023-03-29T14:40:26.003Z,101368.81
2023-03-29T14:42:54.005Z,101370.50
2023-03-29T14:45:25.791Z,101352.47
2023-03-29T14:47:53.499Z,101367.94
2023-03-29T14:50:27.160Z,101355.91
2023-03-29T14:52:57.777Z,101445.63
2023-03-29T14:55:26.233Z,101388.00
2023-03-29T14:57:55.327Z,101405.22
2023-03-29T15:00:28.715Z,101365.91
2023-03-29T15:03:00.785Z,101389.25
2023-03-29T15:05:37.535Z,101432.28
2023-03-29T15:08:07.622Z,101437.47
2023-03-29T15:10:37.175Z,101436.94
2023-03-29T15:13:06.864Z,101415.53
2023-03-29T15:15:38.339Z,101438.84
2023-03-29T15:18:08.278Z,101351.91
2023-03-29T15:20:44.325Z,101454.16
2023-03-29T15:23:24.019Z,101442.44
2023-03-29T15:25:56.438Z,101443.72
2023-03-29T15:28:28.429Z,101447.44
2023-03-29T15:31:07.686Z,101442.75
2023-03-29T15:33:37.460Z,101413.72
2023-03-29T15:36:05.958Z,101432.56
2023-03-29T15:38:43.061Z,101429.81
2023-03-29T15:41:15.698Z,101431.41
2023-03-29T15:43:43.244Z,101435.41
2023-03-29T15:46:18.074Z,101391.97
2023-03-29T15:48:45.854Z,101401.16
2023-03-29T15:51:13.075Z,101429.59
2023-03-29T15:53:40.933Z,101424.31
2023-03-29T15:56:12.261Z,101419.78
2023-03-29T15:58:39.804Z,101416.63
2023-03-29T16:01:13.544Z,101393.31
2023-03-29T16:03:47.074Z,101421.88
2023-03-29T16:06:16.086Z,101417.53
2023-03-29T16:08:46.202Z,101386.59
2023-03-29T16:11:13.204Z,101423.78
2023-03-29T16:13:40.646Z,101422.81
2023-03-29T16:16:10.593Z,101416.34
2023-03-29T16:18:37.940Z,101391.41
2023-03-29T16:21:12.483Z,101368.53
2023-03-29T16:23:40.764Z,101419.72
2023-03-29T16:26:08.358Z,101401.03
2023-03-29T16:28:37.008Z,101424.50
2023-03-29T16:31:05.106Z,101395.56
2023-03-29T16:33:32.880Z,101411.88
2023-03-29T16:35:59.874Z,101413.56
2023-03-29T16:38:29.305Z,101421.53
2023-03-29T16:40:57.138Z,101412.09
2023-03-29T16:43:24.334Z,101418.59
2023-03-29T16:45:51.545Z,101402.56
2023-03-29T16:48:21.868Z,101410.84
2023-03-29T16:50:49.514Z,101422.03
2023-03-29T16:53:18.262Z,101379.78
2023-03-29T16:55:47.306Z,101388.25
2023-03-29T16:58:16.673Z,101411.56
2023-03-29T17:00:46.318Z,101413.28
2023-03-29T17:03:15.920Z,101408.63
2023-03-29T17:05:48.635Z,101398.25
2023-03-29T17:08:16.441Z,101385.13
2023-03-29T17:10:43.730Z,101419.78
2023-03-29T17:13:13.170Z,101400.81
2023-03-29T17:15:40.132Z,101408.88
2023-03-29T17:18:07.465Z,101409.31
2023-03-29T17:20:34.686Z,101410.50
2023-03-29T17:23:02.097Z,101388.44
2023-03-29T17:25:29.193Z,101406.91
2023-03-29T17:27:57.214Z,101417.16
2023-03-29T17:30:25.759Z,101422.66
2023-03-29T17:32:53.736Z,101425.63
2023-03-29T17:35:20.949Z,101422.44
2023-03-29T17:37:48.147Z,101423.63
2023-03-29T17:40:15.254Z,101421.38
2023-03-29T17:42:43.268Z,101424.34
2023-03-29T17:45:11.344Z,101433.13
2023-03-29T17:47:40.936Z,101428.88
2023-03-29T17:50:12.007Z,101416.03
2023-03-29T17:52:40.432Z,101432.66
2023-03-29T17:55:11.194Z,101445.94
2023-03-29T17:57:39.009Z,101446.81
2023-03-29T18:00:09.405Z,101447.66
2023-03-29T18:02:37.025Z,101456.03
2023-03-29T18:05:09.453Z,101454.63
2023-03-29T18:07:37.330Z,101444.91
2023-03-29T18:10:04.995Z,101456.16
2023-03-29T18:12:32.650Z,101456.25
2023-03-29T18:14:59.824Z,101415.06
2023-03-29T18:17:29.920Z,101455.34
2023-03-29T18:19:57.557Z,101463.44
2023-03-29T18:22:27.793Z,101464.75
2023-03-29T18:24:55.046Z,101466.81
2023-03-29T18:27:22.583Z,101467.13
2023-03-29T18:29:49.637Z,101450.69
2023-03-29T18:32:17.572Z,101481.66
2023-03-29T18:34:47.154Z,101472.88
2023-03-29T18:37:17.551Z,101482.59
2023-03-29T18:39:47.106Z,101479.13
2023-03-29T18:42:14.903Z,101489.13
2023-03-29T18:44:42.254Z,101455.50
2023-03-29T18:47:09.655Z,101487.22
2023-03-29T18:49:36.889Z,101484.06
2023-03-29T18:52:05.826Z,101479.94
2023-03-29T18:54:32.915Z,101493.72
2023-03-29T18:57:04.359Z,101493.06
2023-03-29T18:59:35.948Z,101444.03
2023-03-29T19:02:03.769Z,101491.63
2023-03-29T19:04:31.790Z,101489.16
2023-03-29T19:07:03.520Z,101490.47
2023-03-29T19:09:31.754Z,101475.28
2023-03-29T19:12:03.414Z,101500.84
2023-03-29T19:14:32.640Z,101499.81
2023-03-29T19:17:02.901Z,101395.38
2023-03-29T19:19:30.072Z,101459.13
2023-03-29T19:22:00.271Z,101415.44
2023-03-29T19:24:27.745Z,101493.75
2023-03-29T19:26:56.643Z,101494.13
2023-03-29T19:29:25.912Z,101466.38
2023-03-29T19:31:56.430Z,101492.16
2023-03-29T19:34:24.382Z,101493.25
2023-03-29T19:36:53.434Z,101415.31
2023-03-29T19:39:26.905Z,101485.22
2023-03-29T19:41:56.285Z,101486.91
2023-03-29T19:44:23.666Z,101488.69
2023-03-29T19:46:54.663Z,101490.28
2023-03-29T19:49:21.755Z,101491.16
2023-03-29T19:51:50.455Z,101488.69
2023-03-29T19:54:17.607Z,101495.09
2023-03-29T19:56:45.200Z,101485.88
2023-03-29T19:59:14.833Z,101476.03
2023-03-29T20:01:51.097Z,101474.97
2023-03-29T20:04:20.892Z,101468.56
2023-03-29T20:06:51.749Z,101438.91
2023-03-29T20:09:18.793Z,101389.69
2023-03-29T20:11:50.969Z,101471.53
2023-03-29T20:14:18.203Z,101324.78
2023-03-29T20:16:46.314Z,101477.00
2023-03-29T20:19:17.653Z,101479.84
2023-03-29T20:21:46.444Z,101476.66
2023-03-29T20:24:13.570Z,101479.22
2023-03-29T20:26:41.104Z,101468.09
2023-03-29T20:29:08.677Z,101483.03
2023-03-29T20:31:36.208Z,101480.16
2023-03-29T20:34:03.425Z,101406.94
2023-03-29T20:36:31.754Z,101481.31
2023-03-29T20:39:01.301Z,101481.66
2023-03-29T20:41:28.612Z,101451.84
2023-03-29T20:43:58.411Z,101480.84
2023-03-29T20:46:33.256Z,101473.44
2023-03-29T20:49:01.555Z,101465.00
2023-03-29T20:51:30.428Z,101402.09
2023-03-29T20:54:02.574Z,101460.47
2023-03-29T20:56:35.256Z,101479.78
2023-03-29T20:59:04.037Z,101472.91
2023-03-29T21:01:31.693Z,101464.78
2023-03-29T21:03:59.100Z,101463.84
2023-03-29T21:06:26.338Z,101459.75
2023-03-29T21:08:53.539Z,101443.94
2023-03-29T21:11:23.924Z,101417.47
2023-03-29T21:13:52.848Z,101451.59
2023-03-29T21:16:20.890Z,101453.22
2023-03-29T21:18:47.966Z,101411.44
2023-03-29T21:21:17.359Z,101456.84
2023-03-29T21:23:44.214Z,101451.72
2023-03-29T21:26:11.602Z,101456.31
2023-03-29T21:28:38.600Z,101464.31
2023-03-29T21:31:08.238Z,101459.88
2023-03-29T21:33:35.629Z,101443.56
2023-03-29T21:36:03.006Z,101458.59
2023-03-29T21:38:30.090Z,101414.91
2023-03-29T21:40:58.189Z,101421.59
2023-03-29T21:43:25.460Z,101463.84
2023-03-29T21:45:52.816Z,101457.66
2023-03-29T21:48:21.172Z,101405.28
2023-03-29T21:50:49.372Z,101454.78
2023-03-29T21:53:16.809Z,101455.03
2023-03-29T21:55:44.149Z,101441.78
2023-03-29T21:58:11.094Z,101458.91
2023-03-29T22:00:38.390Z,101457.56
2023-03-29T22:03:06.075Z,101446.44
2023-03-29T22:05:35.115Z,101461.91
2023-03-29T22:08:02.061Z,101461.28
2023-03-29T22:10:29.586Z,101446.13
2023-03-29T22:12:57.173Z,101462.91
2023-03-29T22:15:24.522Z,101462.13
2023-03-29T22:17:53.446Z,101444.84
2023-03-29T22:20:20.413Z,101446.81
2023-03-29T22:22:50.354Z,101448.91
2023-03-29T22:25:19.348Z,101427.88
2023-03-29T22:27:47.890Z,101451.06
2023-03-29T22:30:16.244Z,101451.38
2023-03-29T22:32:43.379Z,101452.41
2023-03-29T22:35:10.989Z,101461.06
2023-03-29T22:37:41.205Z,101452.78
2023-03-29T22:40:12.088Z,101463.44
2023-03-29T22:42:39.010Z,101443.59
2023-03-29T22:45:07.534Z,101441.31
2023-03-29T22:47:35.377Z,101463.63
2023-03-29T22:50:02.783Z,101455.44
2023-03-29T22:52:29.814Z,101433.34
2023-03-29T22:54:57.366Z,101477.91
2023-03-29T22:57:25.889Z,101480.53
2023-03-29T22:59:53.243Z,101482.94
2023-03-29T23:02:20.603Z,101487.84
2023-03-29T23:04:48.123Z,101468.53
2023-03-29T23:07:15.236Z,101487.63
2023-03-29T23:09:42.379Z,101478.56
2023-03-29T23:12:09.767Z,101487.22
2023-03-29T23:14:42.737Z,101481.03
2023-03-29T23:17:10.405Z,101483.44
2023-03-29T23:19:38.164Z,101479.59
2023-03-29T23:22:05.356Z,101474.69
2023-03-29T23:24:33.430Z,101469.03
2023-03-29T23:27:01.181Z,101470.78
2023-03-29T23:29:28.825Z,101469.78
2023-03-29T23:31:57.408Z,101461.91
2023-03-29T23:34:25.221Z,101442.66
2023-03-29T23:36:52.218Z,101451.03
2023-03-29T23:39:19.529Z,101468.44
2023-03-29T23:41:46.562Z,101457.78
2023-03-29T23:44:13.866Z,101424.31
2023-03-29T23:46:41.938Z,101471.56
2023-03-29T23:49:10.897Z,101463.28
2023-03-29T23:51:39.201Z,101469.69
2023-03-29T23:54:25.321Z,101466.63
2023-03-29T23:56:52.286Z,101466.63
2023-03-29T23:59:19.593Z,101449.19
